KCLT/CLT METAR and TAF weather

Enter ICAO airport designator
Station Type Date Time Source
KCLT METAR 2019/02/17 06:52 UTC NOAA

KCLT 170652Z 06010KT 10SM FEW025 BKN055 06/01 A2997 RMK AO2 PRESFR SLP148 T00560006


Station Type Date Time Source
KCLT Decoded METAR 2019/02/17 06:52 UTC NOAA

CHARLOTTE/DOUGLAS INTERNATIONAL , NC, United States (KCLT) 35-13N 80-57W 220M
Feb 17, 2019 - 01:52 AM EST / 2019.02.17 0652 UTC
Wind: from the ENE (060 degrees) at 12 MPH (10 KT):0
Visibility: 10 mile(s):0
Sky conditions: mostly cloudy
Temperature: 42.1 F (5.6 C)
Dew Point: 33.1 F (0.6 C)
Relative Humidity: 70%
Pressure (altimeter): 29.97 in. Hg (1014 hPa)
Pressure tendency: falling rapidly
ob: KCLT 170652Z 06010KT 10SM FEW025 BKN055 06/01 A2997 RMK AO2 PRESFR SLP148 T00560006
cycle: 7

Station Type Date Time Source
KCLT TAF 2019/02/17 06:22 UTC NOAA

TAF KCLT 170520Z 1706/1812 07006KT P6SM OVC025
TEMPO 1713/1715 4SM -RADZ OVC007
FM171800 08003KT 5SM -SHRA OVC010
FM172100 VRB03KT 4SM -SHRA OVC005
FM180000 VRB03KT 2SM SHRA BR OVC004
FM180700 25003KT 2SM -SHRA BR OVC007


Example: see airport list